sensor_id;sensor_type;location;lat;lon;timestamp;pressure;altitude;pressure_sealevel;temperature;humidity
59170;BME280;52474;52.236;5.114;2023-03-13T00:01:24;100160.84;;;7.98;100.00
59170;BME280;52474;52.236;5.114;2023-03-13T00:03:50;100170.91;;;8.14;100.00
59170;BME280;52474;52.236;5.114;2023-03-13T00:06:16;100176.88;;;8.16;100.00
59170;BME280;52474;52.236;5.114;2023-03-13T00:08:42;100158.28;;;8.17;100.00
59170;BME280;52474;52.236;5.114;2023-03-13T00:11:11;100162.31;;;8.22;100.00
59170;BME280;52474;52.236;5.114;2023-03-13T00:13:37;100152.34;;;8.25;100.00
59170;BME280;52474;52.236;5.114;2023-03-13T00:16:08;100140.13;;;8.24;100.00
59170;BME280;52474;52.236;5.114;2023-03-13T00:18:34;100146.53;;;8.31;100.00
59170;BME280;52474;52.236;5.114;2023-03-13T00:21:02;100141.84;;;8.35;100.00
59170;BME280;52474;52.236;5.114;2023-03-13T00:23:28;100132.66;;;8.39;100.00
59170;BME280;52474;52.236;5.114;2023-03-13T00:25:59;100092.47;;;8.16;100.00
59170;BME280;52474;52.236;5.114;2023-03-13T00:28:27;100109.47;;;8.33;100.00
59170;BME280;52474;52.236;5.114;2023-03-13T00:31:04;100105.41;;;8.29;100.00
59170;BME280;52474;52.236;5.114;2023-03-13T00:33:44;100095.16;;;8.26;100.00
59170;BME280;52474;52.236;5.114;2023-03-13T00:36:12;100091.09;;;8.22;100.00
59170;BME280;52474;52.236;5.114;2023-03-13T00:38:39;100088.47;;;8.22;100.00
59170;BME280;52474;52.236;5.114;2023-03-13T00:41:06;100076.38;;;8.19;100.00
59170;BME280;52474;52.236;5.114;2023-03-13T00:43:32;100071.81;;;8.21;100.00
59170;BME280;52474;52.236;5.114;2023-03-13T00:45:59;100069.47;;;8.28;100.00
59170;BME280;52474;52.236;5.114;2023-03-13T00:48:26;100040.72;;;8.15;100.00
59170;BME280;52474;52.236;5.114;2023-03-13T00:50:52;100049.31;;;8.27;100.00
59170;BME280;52474;52.236;5.114;2023-03-13T00:53:18;100036.28;;;8.25;100.00
59170;BME280;52474;52.236;5.114;2023-03-13T00:56:16;100035.47;;;8.34;100.00
59170;BME280;52474;52.236;5.114;2023-03-13T00:58:44;100024.06;;;8.34;100.00
59170;BME280;52474;52.236;5.114;2023-03-13T01:03:52;100015.75;;;8.38;100.00
59170;BME280;52474;52.236;5.114;2023-03-13T01:06:20;100013.25;;;8.37;100.00
59170;BME280;52474;52.236;5.114;2023-03-13T01:08:47;99981.44;;;8.29;100.00
59170;BME280;52474;52.236;5.114;2023-03-13T01:11:15;99997.28;;;8.38;100.00
59170;BME280;52474;52.236;5.114;2023-03-13T01:13:41;99974.50;;;8.37;100.00
59170;BME280;52474;52.236;5.114;2023-03-13T01:16:10;99979.53;;;8.50;100.00
59170;BME280;52474;52.236;5.114;2023-03-13T01:18:37;99981.06;;;8.53;100.00
59170;BME280;52474;52.236;5.114;2023-03-13T01:21:04;99968.56;;;8.45;100.00
59170;BME280;52474;52.236;5.114;2023-03-13T01:23:30;99960.50;;;8.56;100.00
59170;BME280;52474;52.236;5.114;2023-03-13T01:25:56;99935.78;;;8.48;100.00
59170;BME280;52474;52.236;5.114;2023-03-13T01:28:24;99953.69;;;8.64;100.00
59170;BME280;52474;52.236;5.114;2023-03-13T01:30:50;99927.69;;;8.69;100.00
59170;BME280;52474;52.236;5.114;2023-03-13T01:33:16;99949.50;;;8.71;100.00
59170;BME280;52474;52.236;5.114;2023-03-13T01:35:42;99921.88;;;8.75;100.00
59170;BME280;52474;52.236;5.114;2023-03-13T01:38:08;99899.53;;;8.59;100.00
59170;BME280;52474;52.236;5.114;2023-03-13T01:40:42;99920.22;;;8.74;100.00
59170;BME280;52474;52.236;5.114;2023-03-13T01:43:29;99907.88;;;8.65;100.00
59170;BME280;52474;52.236;5.114;2023-03-13T01:51:29;99902.78;;;8.91;100.00
59170;BME280;52474;52.236;5.114;2023-03-13T01:56:41;99872.63;;;8.93;100.00
59170;BME280;52474;52.236;5.114;2023-03-13T01:59:11;99878.28;;;9.08;100.00
59170;BME280;52474;52.236;5.114;2023-03-13T02:01:40;99872.03;;;9.09;100.00
59170;BME280;52474;52.236;5.114;2023-03-13T02:04:06;99861.59;;;9.08;100.00
59170;BME280;52474;52.236;5.114;2023-03-13T02:06:34;99847.94;;;9.12;100.00
59170;BME280;52474;52.236;5.114;2023-03-13T02:09:04;99845.31;;;9.12;100.00
59170;BME280;52474;52.236;5.114;2023-03-13T02:11:48;99832.91;;;9.13;100.00
59170;BME280;52474;52.236;5.114;2023-03-13T02:14:19;99833.19;;;9.19;100.00
59170;BME280;52474;52.236;5.114;2023-03-13T02:16:47;99828.59;;;9.21;100.00
59170;BME280;52474;52.236;5.114;2023-03-13T02:19:30;99828.28;;;9.24;100.00
59170;BME280;52474;52.236;5.114;2023-03-13T02:22:20;99816.28;;;9.30;100.00
59170;BME280;52474;52.236;5.114;2023-03-13T02:27:40;99802.81;;;9.33;100.00
59170;BME280;52474;52.236;5.114;2023-03-13T02:30:08;99804.75;;;9.31;100.00
59170;BME280;52474;52.236;5.114;2023-03-13T02:32:34;99788.59;;;9.34;100.00
59170;BME280;52474;52.236;5.114;2023-03-13T02:35:05;99795.78;;;9.42;100.00
59170;BME280;52474;52.236;5.114;2023-03-13T02:37:32;99785.97;;;9.34;100.00
59170;BME280;52474;52.236;5.114;2023-03-13T02:40:00;99799.09;;;9.44;100.00
59170;BME280;52474;52.236;5.114;2023-03-13T02:42:28;99783.50;;;9.51;100.00
59170;BME280;52474;52.236;5.114;2023-03-13T02:44:55;99800.03;;;9.53;100.00
59170;BME280;52474;52.236;5.114;2023-03-13T02:47:22;99769.13;;;9.53;100.00
59170;BME280;52474;52.236;5.114;2023-03-13T02:49:48;99778.97;;;9.61;100.00
59170;BME280;52474;52.236;5.114;2023-03-13T02:53:06;99783.78;;;9.65;100.00
59170;BME280;52474;52.236;5.114;2023-03-13T02:55:36;99767.56;;;9.60;100.00
59170;BME280;52474;52.236;5.114;2023-03-13T02:58:04;99781.59;;;9.61;100.00
59170;BME280;52474;52.236;5.114;2023-03-13T03:00:34;99780.53;;;9.72;100.00
59170;BME280;52474;52.236;5.114;2023-03-13T03:03:00;99784.84;;;9.91;100.00
59170;BME280;52474;52.236;5.114;2023-03-13T03:05:26;99784.38;;;9.95;100.00
59170;BME280;52474;52.236;5.114;2023-03-13T03:07:52;99788.91;;;10.03;100.00
59170;BME280;52474;52.236;5.114;2023-03-13T03:10:18;99782.63;;;10.04;100.00
59170;BME280;52474;52.236;5.114;2023-03-13T03:12:44;99778.91;;;10.15;100.00
59170;BME280;52474;52.236;5.114;2023-03-13T03:15:10;99780.78;;;10.22;100.00
59170;BME280;52474;52.236;5.114;2023-03-13T03:17:41;99782.00;;;10.28;100.00
59170;BME280;52474;52.236;5.114;2023-03-13T03:20:08;99776.09;;;10.34;100.00
59170;BME280;52474;52.236;5.114;2023-03-13T03:22:38;99748.22;;;10.22;100.00
59170;BME280;52474;52.236;5.114;2023-03-13T03:25:06;99764.84;;;10.32;100.00
59170;BME280;52474;52.236;5.114;2023-03-13T03:27:32;99761.72;;;10.37;100.00
59170;BME280;52474;52.236;5.114;2023-03-13T03:29:57;99754.16;;;10.42;100.00
59170;BME280;52474;52.236;5.114;2023-03-13T03:32:23;99755.66;;;10.44;100.00
59170;BME280;52474;52.236;5.114;2023-03-13T03:34:53;99759.81;;;10.47;100.00
59170;BME280;52474;52.236;5.114;2023-03-13T03:37:19;99753.81;;;10.45;100.00
59170;BME280;52474;52.236;5.114;2023-03-13T03:39:44;99742.91;;;10.48;100.00
59170;BME280;52474;52.236;5.114;2023-03-13T03:42:10;99752.06;;;10.53;100.00
59170;BME280;52474;52.236;5.114;2023-03-13T03:44:37;99755.25;;;10.65;100.00
59170;BME280;52474;52.236;5.114;2023-03-13T03:47:03;99741.38;;;10.63;100.00
59170;BME280;52474;52.236;5.114;2023-03-13T03:49:33;99748.16;;;10.66;100.00
59170;BME280;52474;52.236;5.114;2023-03-13T03:51:59;99739.53;;;10.64;100.00
59170;BME280;52474;52.236;5.114;2023-03-13T03:54:30;99735.22;;;10.63;100.00
59170;BME280;52474;52.236;5.114;2023-03-13T03:56:57;99732.41;;;10.64;100.00
59170;BME280;52474;52.236;5.114;2023-03-13T03:59:23;99716.00;;;10.61;100.00
59170;BME280;52474;52.236;5.114;2023-03-13T04:01:55;99728.13;;;10.63;100.00
59170;BME280;52474;52.236;5.114;2023-03-13T04:04:23;99711.56;;;10.61;100.00
59170;BME280;52474;52.236;5.114;2023-03-13T04:06:56;99690.44;;;10.43;100.00
59170;BME280;52474;52.236;5.114;2023-03-13T04:09:22;99715.66;;;10.56;100.00
59170;BME280;52474;52.236;5.114;2023-03-13T04:11:48;99713.34;;;10.61;100.00
59170;BME280;52474;52.236;5.114;2023-03-13T04:14:14;99722.28;;;10.60;100.00
59170;BME280;52474;52.236;5.114;2023-03-13T04:16:49;99713.41;;;10.69;100.00
59170;BME280;52474;52.236;5.114;2023-03-13T04:20:06;99710.75;;;10.69;100.00
59170;BME280;52474;52.236;5.114;2023-03-13T04:22:51;99705.63;;;10.67;100.00
59170;BME280;52474;52.236;5.114;2023-03-13T04:25:19;99706.63;;;10.74;100.00
59170;BME280;52474;52.236;5.114;2023-03-13T04:27:46;99691.75;;;10.73;100.00
59170;BME280;52474;52.236;5.114;2023-03-13T04:30:12;99692.44;;;10.76;100.00
59170;BME280;52474;52.236;5.114;2023-03-13T04:32:43;99693.53;;;10.73;100.00
59170;BME280;52474;52.236;5.114;2023-03-13T04:35:28;99693.72;;;10.71;100.00
59170;BME280;52474;52.236;5.114;2023-03-13T04:38:14;99692.22;;;10.69;100.00
59170;BME280;52474;52.236;5.114;2023-03-13T04:41:18;99680.25;;;10.57;100.00
59170;BME280;52474;52.236;5.114;2023-03-13T04:44:10;99694.06;;;10.68;100.00
59170;BME280;52474;52.236;5.114;2023-03-13T04:47:03;99690.56;;;10.68;100.00
59170;BME280;52474;52.236;5.114;2023-03-13T04:49:38;99660.50;;;10.43;100.00
59170;BME280;52474;52.236;5.114;2023-03-13T04:52:10;99678.81;;;10.70;100.00
59170;BME280;52474;52.236;5.114;2023-03-13T04:54:56;99678.13;;;10.60;100.00
59170;BME280;52474;52.236;5.114;2023-03-13T04:57:42;99680.63;;;10.70;100.00
59170;BME280;52474;52.236;5.114;2023-03-13T05:00:30;99680.63;;;10.70;100.00
59170;BME280;52474;52.236;5.114;2023-03-13T05:03:14;99679.97;;;10.68;100.00
59170;BME280;52474;52.236;5.114;2023-03-13T05:06:01;99669.03;;;10.63;100.00
59170;BME280;52474;52.236;5.114;2023-03-13T05:08:45;99674.03;;;10.74;100.00
59170;BME280;52474;52.236;5.114;2023-03-13T05:11:28;99628.47;;;10.54;100.00
59170;BME280;52474;52.236;5.114;2023-03-13T05:14:26;99671.06;;;10.77;100.00
59170;BME280;52474;52.236;5.114;2023-03-13T05:17:24;99677.72;;;10.89;100.00
59170;BME280;52474;52.236;5.114;2023-03-13T05:20:05;99663.31;;;10.84;100.00
59170;BME280;52474;52.236;5.114;2023-03-13T05:22:56;99656.19;;;10.92;100.00
59170;BME280;52474;52.236;5.114;2023-03-13T05:25:51;99659.50;;;10.94;100.00
59170;BME280;52474;52.236;5.114;2023-03-13T05:28:37;99648.75;;;10.96;100.00
59170;BME280;52474;52.236;5.114;2023-03-13T05:31:18;99648.13;;;11.10;100.00
59170;BME280;52474;52.236;5.114;2023-03-13T05:34:02;99640.84;;;11.12;100.00
59170;BME280;52474;52.236;5.114;2023-03-13T05:36:54;99639.50;;;11.16;100.00
59170;BME280;52474;52.236;5.114;2023-03-13T05:39:58;99630.41;;;11.19;100.00
59170;BME280;52474;52.236;5.114;2023-03-13T05:42:24;99617.81;;;11.29;100.00
59170;BME280;52474;52.236;5.114;2023-03-13T05:45:11;99610.69;;;11.22;100.00
59170;BME280;52474;52.236;5.114;2023-03-13T05:47:56;99621.16;;;11.15;100.00
59170;BME280;52474;52.236;5.114;2023-03-13T05:50:36;99610.19;;;11.26;100.00
59170;BME280;52474;52.236;5.114;2023-03-13T05:53:19;99608.22;;;11.28;100.00
59170;BME280;52474;52.236;5.114;2023-03-13T05:56:03;99602.09;;;11.28;100.00
59170;BME280;52474;52.236;5.114;2023-03-13T05:59:04;99598.94;;;11.41;100.00
59170;BME280;52474;52.236;5.114;2023-03-13T06:01:48;99599.28;;;11.37;100.00
59170;BME280;52474;52.236;5.114;2023-03-13T06:04:26;99590.00;;;11.25;100.00
59170;BME280;52474;52.236;5.114;2023-03-13T06:06:52;99584.22;;;11.30;100.00
59170;BME280;52474;52.236;5.114;2023-03-13T06:09:20;99594.13;;;11.36;100.00
59170;BME280;52474;52.236;5.114;2023-03-13T06:11:47;99594.78;;;11.38;100.00
59170;BME280;52474;52.236;5.114;2023-03-13T06:14:13;99592.16;;;11.38;100.00
59170;BME280;52474;52.236;5.114;2023-03-13T06:16:46;99594.94;;;11.36;100.00
59170;BME280;52474;52.236;5.114;2023-03-13T06:19:18;99573.41;;;11.31;100.00
59170;BME280;52474;52.236;5.114;2023-03-13T06:21:44;99583.19;;;11.31;100.00
59170;BME280;52474;52.236;5.114;2023-03-13T06:24:09;99594.94;;;11.36;100.00
59170;BME280;52474;52.236;5.114;2023-03-13T06:26:36;99605.41;;;11.30;100.00
59170;BME280;52474;52.236;5.114;2023-03-13T06:29:01;99602.75;;;11.38;100.00
59170;BME280;52474;52.236;5.114;2023-03-13T06:31:27;99588.34;;;11.32;100.00
59170;BME280;52474;52.236;5.114;2023-03-13T06:33:54;99609.53;;;11.41;100.00
59170;BME280;52474;52.236;5.114;2023-03-13T06:36:21;99587.16;;;11.43;100.00
59170;BME280;52474;52.236;5.114;2023-03-13T06:38:47;99602.25;;;11.43;100.00
59170;BME280;52474;52.236;5.114;2023-03-13T06:41:13;99596.59;;;11.29;100.00
59170;BME280;52474;52.236;5.114;2023-03-13T06:43:40;99579.88;;;11.29;100.00
59170;BME280;52474;52.236;5.114;2023-03-13T06:46:07;99619.00;;;11.35;100.00
59170;BME280;52474;52.236;5.114;2023-03-13T06:48:33;99617.00;;;11.29;100.00
59170;BME280;52474;52.236;5.114;2023-03-13T06:50:59;99615.16;;;11.21;100.00
59170;BME280;52474;52.236;5.114;2023-03-13T06:53:25;99624.44;;;11.17;100.00
59170;BME280;52474;52.236;5.114;2023-03-13T06:55:50;99628.56;;;11.11;100.00
59170;BME280;52474;52.236;5.114;2023-03-13T06:58:17;99625.94;;;11.03;100.00
59170;BME280;52474;52.236;5.114;2023-03-13T07:00:43;99620.28;;;10.98;100.00
59170;BME280;52474;52.236;5.114;2023-03-13T07:03:09;99645.13;;;10.97;100.00
59170;BME280;52474;52.236;5.114;2023-03-13T07:05:36;99642.31;;;10.90;100.00
59170;BME280;52474;52.236;5.114;2023-03-13T07:08:04;99638.97;;;10.88;100.00
59170;BME280;52474;52.236;5.114;2023-03-13T07:10:43;99638.97;;;10.88;100.00
59170;BME280;52474;52.236;5.114;2023-03-13T07:13:13;99632.16;;;10.78;100.00
59170;BME280;52474;52.236;5.114;2023-03-13T07:15:38;99633.16;;;10.77;100.00
59170;BME280;52474;52.236;5.114;2023-03-13T07:18:04;99644.56;;;10.77;100.00
59170;BME280;52474;52.236;5.114;2023-03-13T07:20:30;99653.34;;;10.78;100.00
59170;BME280;52474;52.236;5.114;2023-03-13T07:22:56;99638.31;;;10.78;100.00
59170;BME280;52474;52.236;5.114;2023-03-13T07:25:21;99650.88;;;10.84;100.00
59170;BME280;52474;52.236;5.114;2023-03-13T07:27:49;99644.28;;;10.88;100.00
59170;BME280;52474;52.236;5.114;2023-03-13T07:30:16;99649.06;;;10.85;100.00
59170;BME280;52474;52.236;5.114;2023-03-13T07:32:42;99638.66;;;10.83;100.00
59170;BME280;52474;52.236;5.114;2023-03-13T07:35:08;99645.25;;;10.79;100.00
59170;BME280;52474;52.236;5.114;2023-03-13T07:37:34;99663.28;;;10.76;100.00
59170;BME280;52474;52.236;5.114;2023-03-13T07:40:00;99663.44;;;10.74;100.00
59170;BME280;52474;52.236;5.114;2023-03-13T07:42:25;99659.31;;;10.71;100.00
59170;BME280;52474;52.236;5.114;2023-03-13T07:44:52;99659.97;;;10.73;100.00
59170;BME280;52474;52.236;5.114;2023-03-13T07:47:17;99650.66;;;10.61;100.00
59170;BME280;52474;52.236;5.114;2023-03-13T07:49:43;99643.22;;;10.73;100.00
59170;BME280;52474;52.236;5.114;2023-03-13T07:52:11;99658.19;;;10.90;100.00
59170;BME280;52474;52.236;5.114;2023-03-13T07:54:37;99671.25;;;10.92;100.00
59170;BME280;52474;52.236;5.114;2023-03-13T07:57:03;99636.63;;;10.85;100.00
59170;BME280;52474;52.236;5.114;2023-03-13T07:59:28;99658.88;;;11.01;100.00
59170;BME280;52474;52.236;5.114;2023-03-13T08:01:54;99657.25;;;11.08;100.00
59170;BME280;52474;52.236;5.114;2023-03-13T08:04:20;99636.38;;;11.13;100.00
59170;BME280;52474;52.236;5.114;2023-03-13T08:06:46;99626.44;;;11.31;100.00
59170;BME280;52474;52.236;5.114;2023-03-13T08:09:12;99615.47;;;11.59;100.00
59170;BME280;52474;52.236;5.114;2023-03-13T08:11:38;99598.69;;;11.83;100.00
59170;BME280;52474;52.236;5.114;2023-03-13T08:14:05;99594.06;;;11.93;100.00
59170;BME280;52474;52.236;5.114;2023-03-13T08:16:33;99610.31;;;11.90;100.00
59170;BME280;52474;52.236;5.114;2023-03-13T08:19:00;99602.19;;;11.92;100.00
59170;BME280;52474;52.236;5.114;2023-03-13T08:21:27;99588.59;;;11.95;100.00
59170;BME280;52474;52.236;5.114;2023-03-13T08:23:55;99586.44;;;11.90;100.00
59170;BME280;52474;52.236;5.114;2023-03-13T08:26:25;99582.31;;;11.88;100.00
59170;BME280;52474;52.236;5.114;2023-03-13T08:28:53;99585.13;;;11.78;100.00
59170;BME280;52474;52.236;5.114;2023-03-13T08:31:25;99586.44;;;11.74;100.00
59170;BME280;52474;52.236;5.114;2023-03-13T08:33:51;99577.00;;;11.71;100.00
59170;BME280;52474;52.236;5.114;2023-03-13T08:36:21;99573.56;;;11.63;100.00
59170;BME280;52474;52.236;5.114;2023-03-13T08:38:48;99582.00;;;11.58;100.00
59170;BME280;52474;52.236;5.114;2023-03-13T08:41:19;99584.34;;;11.53;100.00
59170;BME280;52474;52.236;5.114;2023-03-13T08:43:46;99560.50;;;11.45;100.00
59170;BME280;52474;52.236;5.114;2023-03-13T08:46:13;99566.28;;;11.48;100.00
59170;BME280;52474;52.236;5.114;2023-03-13T08:48:38;99573.22;;;11.49;100.00
59170;BME280;52474;52.236;5.114;2023-03-13T08:51:05;99565.59;;;11.63;100.00
59170;BME280;52474;52.236;5.114;2023-03-13T08:53:33;99562.09;;;11.70;100.00
59170;BME280;52474;52.236;5.114;2023-03-13T08:56:00;99570.34;;;11.83;100.00
59170;BME280;52474;52.236;5.114;2023-03-13T08:58:26;99566.16;;;12.06;100.00
59170;BME280;52474;52.236;5.114;2023-03-13T09:00:52;99564.94;;;12.48;100.00
59170;BME280;52474;52.236;5.114;2023-03-13T09:03:18;99550.69;;;13.18;100.00
59170;BME280;52474;52.236;5.114;2023-03-13T09:05:43;99527.38;;;16.97;100.00
59170;BME280;52474;52.236;5.114;2023-03-13T09:08:13;99537.38;;;14.88;100.00
59170;BME280;52474;52.236;5.114;2023-03-13T09:10:40;99515.28;;;15.22;100.00
59170;BME280;52474;52.236;5.114;2023-03-13T09:13:08;99525.38;;;14.41;100.00
59170;BME280;52474;52.236;5.114;2023-03-13T09:15:34;99518.75;;;13.56;100.00
59170;BME280;52474;52.236;5.114;2023-03-13T09:18:00;99504.59;;;13.25;100.00
59170;BME280;52474;52.236;5.114;2023-03-13T09:20:26;99523.81;;;12.89;100.00
59170;BME280;52474;52.236;5.114;2023-03-13T09:22:51;99517.00;;;12.72;100.00
59170;BME280;52474;52.236;5.114;2023-03-13T09:25:17;99510.25;;;12.84;100.00
59170;BME280;52474;52.236;5.114;2023-03-13T09:27:43;99502.69;;;12.96;100.00
59170;BME280;52474;52.236;5.114;2023-03-13T09:30:11;99500.69;;;12.98;100.00
59170;BME280;52474;52.236;5.114;2023-03-13T09:32:37;99462.53;;;12.91;100.00
59170;BME280;52474;52.236;5.114;2023-03-13T09:35:03;99494.19;;;13.01;100.00
59170;BME280;52474;52.236;5.114;2023-03-13T09:37:29;99494.50;;;13.21;100.00
59170;BME280;52474;52.236;5.114;2023-03-13T09:39:54;99457.63;;;13.03;100.00
59170;BME280;52474;52.236;5.114;2023-03-13T09:42:41;99479.25;;;13.52;100.00
59170;BME280;52474;52.236;5.114;2023-03-13T09:45:17;99468.59;;;13.52;100.00
59170;BME280;52474;52.236;5.114;2023-03-13T09:47:59;99448.38;;;17.01;100.00
59170;BME280;52474;52.236;5.114;2023-03-13T09:50:33;99457.56;;;14.86;100.00
59170;BME280;52474;52.236;5.114;2023-03-13T09:53:06;99445.56;;;15.25;100.00
59170;BME280;52474;52.236;5.114;2023-03-13T09:55:38;99445.97;;;15.63;100.00
59170;BME280;52474;52.236;5.114;2023-03-13T09:58:22;99429.81;;;14.74;100.00
59170;BME280;52474;52.236;5.114;2023-03-13T10:01:03;99433.47;;;18.35;100.00
59170;BME280;52474;52.236;5.114;2023-03-13T10:03:34;99434.31;;;19.18;100.00
59170;BME280;52474;52.236;5.114;2023-03-13T10:06:10;99407.09;;;15.48;100.00
59170;BME280;52474;52.236;5.114;2023-03-13T10:08:37;99410.66;;;14.64;100.00
59170;BME280;52474;52.236;5.114;2023-03-13T10:11:06;99423.22;;;14.70;100.00
59170;BME280;52474;52.236;5.114;2023-03-13T10:13:55;99432.72;;;14.36;100.00
59170;BME280;52474;52.236;5.114;2023-03-13T10:16:40;99432.53;;;14.80;100.00
59170;BME280;52474;52.236;5.114;2023-03-13T10:19:15;99415.22;;;16.36;100.00
59170;BME280;52474;52.236;5.114;2023-03-13T10:21:45;99416.78;;;18.33;100.00
59170;BME280;52474;52.236;5.114;2023-03-13T10:24:30;99403.91;;;20.09;100.00
59170;BME280;52474;52.236;5.114;2023-03-13T10:26:57;99411.00;;;20.04;100.00
59170;BME280;52474;52.236;5.114;2023-03-13T10:29:25;99402.06;;;21.86;100.00
59170;BME280;52474;52.236;5.114;2023-03-13T10:31:59;99410.47;;;18.53;100.00
59170;BME280;52474;52.236;5.114;2023-03-13T10:35:13;99383.75;;;15.56;100.00
59170;BME280;52474;52.236;5.114;2023-03-13T10:37:15;99407.06;;;15.06;100.00
59170;BME280;52474;52.236;5.114;2023-03-13T10:39:44;99417.31;;;15.37;100.00
59170;BME280;52474;52.236;5.114;2023-03-13T10:42:16;99414.16;;;16.10;100.00
59170;BME280;52474;52.236;5.114;2023-03-13T10:44:44;99384.38;;;16.46;100.00
59170;BME280;52474;52.236;5.114;2023-03-13T10:47:12;99392.84;;;18.95;100.00
59170;BME280;52474;52.236;5.114;2023-03-13T10:49:58;99417.50;;;15.77;100.00
59170;BME280;52474;52.236;5.114;2023-03-13T10:52:45;99406.84;;;18.65;100.00
59170;BME280;52474;52.236;5.114;2023-03-13T10:55:20;99397.94;;;15.63;100.00
59170;BME280;52474;52.236;5.114;2023-03-13T10:58:04;99402.53;;;18.64;100.00
59170;BME280;52474;52.236;5.114;2023-03-13T11:00:40;99374.78;;;20.48;100.00
59170;BME280;52474;52.236;5.114;2023-03-13T11:03:22;99379.25;;;16.85;100.00
59170;BME280;52474;52.236;5.114;2023-03-13T11:05:57;99417.38;;;17.52;100.00
59170;BME280;52474;52.236;5.114;2023-03-13T11:08:32;99398.31;;;18.82;100.00
59170;BME280;52474;52.236;5.114;2023-03-13T11:11:03;99386.63;;;18.95;100.00
59170;BME280;52474;52.236;5.114;2023-03-13T11:13:41;99389.31;;;16.29;100.00
59170;BME280;52474;52.236;5.114;2023-03-13T11:16:21;99401.94;;;18.37;100.00
59170;BME280;52474;52.236;5.114;2023-03-13T11:24:34;99373.84;;;15.43;100.00
59170;BME280;52474;52.236;5.114;2023-03-13T11:27:22;99364.75;;;15.31;100.00
59170;BME280;52474;52.236;5.114;2023-03-13T11:35:48;99386.09;;;15.31;100.00
59170;BME280;52474;52.236;5.114;2023-03-13T11:38:32;99385.00;;;15.19;100.00
59170;BME280;52474;52.236;5.114;2023-03-13T11:53:11;99389.34;;;16.49;100.00
59170;BME280;52474;52.236;5.114;2023-03-13T11:55:47;99378.56;;;18.70;100.00
59170;BME280;52474;52.236;5.114;2023-03-13T11:58:35;99358.41;;;17.20;100.00
59170;BME280;52474;52.236;5.114;2023-03-13T12:04:05;99386.34;;;19.21;100.00
59170;BME280;52474;52.236;5.114;2023-03-13T12:06:43;99370.09;;;19.53;100.00
59170;BME280;52474;52.236;5.114;2023-03-13T12:09:25;99357.41;;;18.36;100.00
59170;BME280;52474;52.236;5.114;2023-03-13T12:14:32;99359.03;;;21.92;100.00
59170;BME280;52474;52.236;5.114;2023-03-13T12:17:07;99365.72;;;18.53;100.00
59170;BME280;52474;52.236;5.114;2023-03-13T12:20:01;99344.13;;;22.85;100.00
59170;BME280;52474;52.236;5.114;2023-03-13T12:22:42;99358.16;;;18.18;100.00
59170;BME280;52474;52.236;5.114;2023-03-13T12:25:17;99335.41;;;22.44;100.00
59170;BME280;52474;52.236;5.114;2023-03-13T12:28:10;99352.25;;;18.60;100.00
59170;BME280;52474;52.236;5.114;2023-03-13T12:30:53;99372.16;;;19.88;100.00
59170;BME280;52474;52.236;5.114;2023-03-13T12:33:35;99359.69;;;16.78;100.00
59170;BME280;52474;52.236;5.114;2023-03-13T12:38:52;99367.44;;;15.31;100.00
59170;BME280;52474;52.236;5.114;2023-03-13T12:41:27;99354.03;;;17.39;100.00
59170;BME280;52474;52.236;5.114;2023-03-13T12:43:56;99335.94;;;19.42;100.00
59170;BME280;52474;52.236;5.114;2023-03-13T12:46:38;99343.06;;;19.66;100.00
59170;BME280;52474;52.236;5.114;2023-03-13T12:59:55;99313.75;;;18.54;100.00
59170;BME280;52474;52.236;5.114;2023-03-13T13:02:27;99300.88;;;18.88;100.00
59170;BME280;52474;52.236;5.114;2023-03-13T13:04:55;99278.38;;;17.57;100.00
59170;BME280;52474;52.236;5.114;2023-03-13T13:07:33;99298.41;;;17.86;100.00
59170;BME280;52474;52.236;5.114;2023-03-13T13:12:40;99276.38;;;17.84;100.00
59170;BME280;52474;52.236;5.114;2023-03-13T13:15:24;99278.06;;;17.40;100.00
59170;BME280;52474;52.236;5.114;2023-03-13T13:17:55;99277.22;;;17.39;100.00
59170;BME280;52474;52.236;5.114;2023-03-13T13:20:44;99260.94;;;17.03;100.00
59170;BME280;52474;52.236;5.114;2023-03-13T13:23:25;99290.03;;;16.59;100.00
59170;BME280;52474;52.236;5.114;2023-03-13T13:25:53;99283.28;;;17.28;100.00
59170;BME280;52474;52.236;5.114;2023-03-13T13:28:26;99257.34;;;16.57;100.00
59170;BME280;52474;52.236;5.114;2023-03-13T13:30:56;99301.38;;;17.26;100.00
59170;BME280;52474;52.236;5.114;2023-03-13T13:38:51;99277.78;;;17.10;100.00
59170;BME280;52474;52.236;5.114;2023-03-13T13:43:45;99286.53;;;16.39;100.00
59170;BME280;52474;52.236;5.114;2023-03-13T13:46:23;99288.41;;;16.38;100.00
59170;BME280;52474;52.236;5.114;2023-03-13T13:51:40;99291.06;;;15.92;100.00
59170;BME280;52474;52.236;5.114;2023-03-13T13:54:33;99308.75;;;16.59;100.00
59170;BME280;52474;52.236;5.114;2023-03-13T13:57:09;99286.25;;;15.67;100.00
59170;BME280;52474;52.236;5.114;2023-03-13T13:59:45;99282.03;;;15.86;100.00
59170;BME280;52474;52.236;5.114;2023-03-13T14:02:30;99278.94;;;16.09;100.00
59170;BME280;52474;52.236;5.114;2023-03-13T14:05:01;99290.84;;;15.86;100.00
59170;BME280;52474;52.236;5.114;2023-03-13T14:07:45;99283.66;;;15.74;100.00
59170;BME280;52474;52.236;5.114;2023-03-13T14:13:00;99281.22;;;16.32;100.00
59170;BME280;52474;52.236;5.114;2023-03-13T14:15:28;99276.06;;;15.97;100.00
59170;BME280;52474;52.236;5.114;2023-03-13T14:18:01;99285.06;;;15.63;100.00
59170;BME280;52474;52.236;5.114;2023-03-13T14:20:36;99269.69;;;15.72;100.00
59170;BME280;52474;52.236;5.114;2023-03-13T14:23:05;99274.81;;;15.18;100.00
59170;BME280;52474;52.236;5.114;2023-03-13T14:25:49;99264.78;;;15.20;100.00
59170;BME280;52474;52.236;5.114;2023-03-13T14:28:23;99250.00;;;15.18;100.00
59170;BME280;52474;52.236;5.114;2023-03-13T14:30:56;99257.38;;;15.09;100.00